sensor_id;sensor_type;location;lat;lon;timestamp;P1;durP1;ratioP1;P2;durP2;ratioP2
54271;SDS011;40184;53.362;5.216;2022-11-20T00:00:49;4.90;;;1.77;;
54271;SDS011;40184;53.362;5.216;2022-11-20T00:03:15;1.25;;;1.17;;
54271;SDS011;40184;53.362;5.216;2022-11-20T00:05:42;1.67;;;1.02;;
54271;SDS011;40184;53.362;5.216;2022-11-20T00:08:08;11.98;;;4.03;;
54271;SDS011;40184;53.362;5.216;2022-11-20T00:10:38;2.60;;;1.45;;
54271;SDS011;40184;53.362;5.216;2022-11-20T00:13:05;7.07;;;2.03;;
54271;SDS011;40184;53.362;5.216;2022-11-20T00:15:31;10.13;;;3.80;;
54271;SDS011;40184;53.362;5.216;2022-11-20T00:17:57;7.63;;;2.90;;
54271;SDS011;40184;53.362;5.216;2022-11-20T00:20:22;2.38;;;1.45;;
54271;SDS011;40184;53.362;5.216;2022-11-20T00:22:48;1.65;;;1.55;;
54271;SDS011;40184;53.362;5.216;2022-11-20T00:25:14;1.40;;;1.30;;
54271;SDS011;40184;53.362;5.216;2022-11-20T00:27:40;2.25;;;1.80;;
54271;SDS011;40184;53.362;5.216;2022-11-20T00:30:06;2.28;;;1.48;;
54271;SDS011;40184;53.362;5.216;2022-11-20T00:32:32;3.90;;;1.92;;
54271;SDS011;40184;53.362;5.216;2022-11-20T00:34:58;2.85;;;1.42;;
54271;SDS011;40184;53.362;5.216;2022-11-20T00:37:23;5.03;;;1.80;;
54271;SDS011;40184;53.362;5.216;2022-11-20T00:39:49;1.48;;;1.38;;
54271;SDS011;40184;53.362;5.216;2022-11-20T00:42:15;1.65;;;1.15;;
54271;SDS011;40184;53.362;5.216;2022-11-20T00:44:40;2.35;;;1.40;;
54271;SDS011;40184;53.362;5.216;2022-11-20T00:47:06;1.67;;;1.10;;
54271;SDS011;40184;53.362;5.216;2022-11-20T00:49:32;1.42;;;1.30;;
54271;SDS011;40184;53.362;5.216;2022-11-20T00:51:57;2.10;;;1.23;;
54271;SDS011;40184;53.362;5.216;2022-11-20T00:54:23;4.22;;;1.60;;
54271;SDS011;40184;53.362;5.216;2022-11-20T00:56:48;2.47;;;1.48;;
54271;SDS011;40184;53.362;5.216;2022-11-20T00:59:14;2.00;;;1.50;;
54271;SDS011;40184;53.362;5.216;2022-11-20T01:01:39;3.83;;;2.55;;
54271;SDS011;40184;53.362;5.216;2022-11-20T01:04:05;1.58;;;1.48;;
54271;SDS011;40184;53.362;5.216;2022-11-20T01:06:32;2.03;;;1.55;;
54271;SDS011;40184;53.362;5.216;2022-11-20T01:09:01;1.27;;;1.23;;
54271;SDS011;40184;53.362;5.216;2022-11-20T01:11:30;1.65;;;1.55;;
54271;SDS011;40184;53.362;5.216;2022-11-20T01:13:58;1.58;;;1.48;;
54271;SDS011;40184;53.362;5.216;2022-11-20T01:16:27;1.65;;;1.55;;
54271;SDS011;40184;53.362;5.216;2022-11-20T01:18:56;1.52;;;1.42;;
54271;SDS011;40184;53.362;5.216;2022-11-20T01:21:24;1.67;;;1.58;;
54271;SDS011;40184;53.362;5.216;2022-11-20T01:23:55;2.10;;;1.90;;
54271;SDS011;40184;53.362;5.216;2022-11-20T01:26:22;2.20;;;1.45;;
54271;SDS011;40184;53.362;5.216;2022-11-20T01:28:51;2.08;;;1.75;;
54271;SDS011;40184;53.362;5.216;2022-11-20T01:31:22;2.00;;;1.90;;
54271;SDS011;40184;53.362;5.216;2022-11-20T01:33:51;3.05;;;2.08;;
54271;SDS011;40184;53.362;5.216;2022-11-20T01:36:18;1.67;;;1.58;;
54271;SDS011;40184;53.362;5.216;2022-11-20T01:38:46;1.60;;;1.50;;
54271;SDS011;40184;53.362;5.216;2022-11-20T01:41:12;2.00;;;1.80;;
54271;SDS011;40184;53.362;5.216;2022-11-20T01:43:59;2.20;;;1.90;;
54271;SDS011;40184;53.362;5.216;2022-11-20T01:46:25;1.70;;;1.60;;
54271;SDS011;40184;53.362;5.216;2022-11-20T01:49:04;4.57;;;3.10;;
54271;SDS011;40184;53.362;5.216;2022-11-20T01:51:52;2.40;;;2.20;;
54271;SDS011;40184;53.362;5.216;2022-11-20T01:54:56;5.38;;;2.92;;
54271;SDS011;40184;53.362;5.216;2022-11-20T01:57:29;3.38;;;2.47;;
54271;SDS011;40184;53.362;5.216;2022-11-20T01:59:58;3.30;;;3.00;;
54271;SDS011;40184;53.362;5.216;2022-11-20T02:02:28;3.20;;;2.83;;
54271;SDS011;40184;53.362;5.216;2022-11-20T02:04:54;4.72;;;3.40;;
54271;SDS011;40184;53.362;5.216;2022-11-20T02:07:23;3.42;;;3.13;;
54271;SDS011;40184;53.362;5.216;2022-11-20T02:09:50;3.25;;;2.95;;
54271;SDS011;40184;53.362;5.216;2022-11-20T02:12:16;2.92;;;2.67;;
54271;SDS011;40184;53.362;5.216;2022-11-20T02:15:00;3.63;;;3.15;;
54271;SDS011;40184;53.362;5.216;2022-11-20T02:17:26;3.17;;;2.88;;
54271;SDS011;40184;53.362;5.216;2022-11-20T02:19:52;3.70;;;3.35;;
54271;SDS011;40184;53.362;5.216;2022-11-20T02:22:19;3.97;;;3.35;;
54271;SDS011;40184;53.362;5.216;2022-11-20T02:24:56;5.15;;;3.97;;
54271;SDS011;40184;53.362;5.216;2022-11-20T02:27:24;4.53;;;4.13;;
54271;SDS011;40184;53.362;5.216;2022-11-20T02:29:51;3.75;;;3.38;;
54271;SDS011;40184;53.362;5.216;2022-11-20T02:32:24;6.28;;;3.92;;
54271;SDS011;40184;53.362;5.216;2022-11-20T02:34:51;4.03;;;3.25;;
54271;SDS011;40184;53.362;5.216;2022-11-20T02:37:16;3.33;;;3.13;;
54271;SDS011;40184;53.362;5.216;2022-11-20T02:39:44;4.55;;;3.35;;
54271;SDS011;40184;53.362;5.216;2022-11-20T02:42:12;3.75;;;3.22;;
54271;SDS011;40184;53.362;5.216;2022-11-20T02:44:37;5.88;;;3.95;;
54271;SDS011;40184;53.362;5.216;2022-11-20T02:47:03;4.68;;;3.65;;
54271;SDS011;40184;53.362;5.216;2022-11-20T02:49:29;4.35;;;3.95;;
54271;SDS011;40184;53.362;5.216;2022-11-20T02:51:55;3.78;;;3.28;;
54271;SDS011;40184;53.362;5.216;2022-11-20T02:54:20;5.60;;;3.67;;
54271;SDS011;40184;53.362;5.216;2022-11-20T02:56:46;3.03;;;2.72;;
54271;SDS011;40184;53.362;5.216;2022-11-20T02:59:11;3.42;;;3.08;;
54271;SDS011;40184;53.362;5.216;2022-11-20T03:01:37;2.92;;;2.40;;
54271;SDS011;40184;53.362;5.216;2022-11-20T03:04:03;3.08;;;2.75;;
54271;SDS011;40184;53.362;5.216;2022-11-20T03:06:29;2.95;;;2.75;;
54271;SDS011;40184;53.362;5.216;2022-11-20T03:08:55;3.05;;;2.78;;
54271;SDS011;40184;53.362;5.216;2022-11-20T03:11:20;2.97;;;2.67;;
54271;SDS011;40184;53.362;5.216;2022-11-20T03:13:46;3.20;;;2.85;;
54271;SDS011;40184;53.362;5.216;2022-11-20T03:16:16;4.00;;;3.05;;
54271;SDS011;40184;53.362;5.216;2022-11-20T03:18:43;3.55;;;2.50;;
54271;SDS011;40184;53.362;5.216;2022-11-20T03:21:10;5.00;;;2.40;;
54271;SDS011;40184;53.362;5.216;2022-11-20T03:23:36;2.70;;;2.50;;
54271;SDS011;40184;53.362;5.216;2022-11-20T03:28:42;2.78;;;2.42;;
54271;SDS011;40184;53.362;5.216;2022-11-20T03:31:13;3.70;;;2.58;;
54271;SDS011;40184;53.362;5.216;2022-11-20T03:33:40;3.47;;;3.08;;
54271;SDS011;40184;53.362;5.216;2022-11-20T03:36:10;4.15;;;1.92;;
54271;SDS011;40184;53.362;5.216;2022-11-20T03:38:38;2.07;;;1.87;;
54271;SDS011;40184;53.362;5.216;2022-11-20T03:41:09;1.80;;;1.45;;
54271;SDS011;40184;53.362;5.216;2022-11-20T03:43:52;1.67;;;1.48;;
54271;SDS011;40184;53.362;5.216;2022-11-20T03:46:19;1.63;;;1.50;;
54271;SDS011;40184;53.362;5.216;2022-11-20T03:48:46;1.42;;;1.33;;
54271;SDS011;40184;53.362;5.216;2022-11-20T03:51:13;1.95;;;1.35;;
54271;SDS011;40184;53.362;5.216;2022-11-20T03:53:41;1.52;;;1.42;;
54271;SDS011;40184;53.362;5.216;2022-11-20T03:56:09;3.05;;;1.38;;
54271;SDS011;40184;53.362;5.216;2022-11-20T03:58:35;2.17;;;1.50;;
54271;SDS011;40184;53.362;5.216;2022-11-20T04:03:41;2.80;;;1.17;;
54271;SDS011;40184;53.362;5.216;2022-11-20T04:06:08;1.70;;;1.10;;
54271;SDS011;40184;53.362;5.216;2022-11-20T04:08:39;0.90;;;0.90;;
54271;SDS011;40184;53.362;5.216;2022-11-20T04:11:16;1.25;;;0.98;;
54271;SDS011;40184;53.362;5.216;2022-11-20T04:13:47;2.55;;;1.25;;
54271;SDS011;40184;53.362;5.216;2022-11-20T04:16:15;1.83;;;1.30;;
54271;SDS011;40184;53.362;5.216;2022-11-20T04:18:41;1.58;;;1.48;;
54271;SDS011;40184;53.362;5.216;2022-11-20T04:21:08;2.05;;;1.38;;
54271;SDS011;40184;53.362;5.216;2022-11-20T04:23:34;1.17;;;1.08;;
54271;SDS011;40184;53.362;5.216;2022-11-20T04:26:00;1.63;;;1.00;;
54271;SDS011;40184;53.362;5.216;2022-11-20T04:28:27;0.95;;;0.90;;
54271;SDS011;40184;53.362;5.216;2022-11-20T04:30:53;0.88;;;0.80;;
54271;SDS011;40184;53.362;5.216;2022-11-20T04:33:19;1.10;;;1.00;;
54271;SDS011;40184;53.362;5.216;2022-11-20T04:35:45;2.35;;;1.60;;
54271;SDS011;40184;53.362;5.216;2022-11-20T04:38:12;1.02;;;1.02;;
54271;SDS011;40184;53.362;5.216;2022-11-20T04:40:37;1.40;;;1.27;;
54271;SDS011;40184;53.362;5.216;2022-11-20T04:43:03;1.33;;;1.20;;
54271;SDS011;40184;53.362;5.216;2022-11-20T04:45:29;1.30;;;1.20;;
54271;SDS011;40184;53.362;5.216;2022-11-20T04:47:54;0.85;;;0.85;;
54271;SDS011;40184;53.362;5.216;2022-11-20T04:50:20;1.30;;;1.20;;
54271;SDS011;40184;53.362;5.216;2022-11-20T04:52:46;0.93;;;0.85;;
54271;SDS011;40184;53.362;5.216;2022-11-20T04:55:11;1.92;;;1.65;;
54271;SDS011;40184;53.362;5.216;2022-11-20T04:57:37;1.75;;;0.90;;
54271;SDS011;40184;53.362;5.216;2022-11-20T05:00:03;2.47;;;1.35;;
54271;SDS011;40184;53.362;5.216;2022-11-20T05:02:30;0.82;;;0.82;;
54271;SDS011;40184;53.362;5.216;2022-11-20T05:04:56;1.58;;;1.48;;
54271;SDS011;40184;53.362;5.216;2022-11-20T05:07:21;2.63;;;2.20;;
54271;SDS011;40184;53.362;5.216;2022-11-20T05:09:47;2.92;;;2.70;;
54271;SDS011;40184;53.362;5.216;2022-11-20T05:12:13;2.85;;;2.58;;
54271;SDS011;40184;53.362;5.216;2022-11-20T05:14:38;2.95;;;2.75;;
54271;SDS011;40184;53.362;5.216;2022-11-20T05:17:04;3.80;;;3.15;;
54271;SDS011;40184;53.362;5.216;2022-11-20T05:19:30;4.03;;;3.25;;
54271;SDS011;40184;53.362;5.216;2022-11-20T05:21:55;3.35;;;2.97;;
54271;SDS011;40184;53.362;5.216;2022-11-20T05:24:21;3.88;;;3.28;;
54271;SDS011;40184;53.362;5.216;2022-11-20T05:26:47;4.40;;;3.00;;
54271;SDS011;40184;53.362;5.216;2022-11-20T05:29:12;4.03;;;3.40;;
54271;SDS011;40184;53.362;5.216;2022-11-20T05:31:38;4.30;;;3.63;;
54271;SDS011;40184;53.362;5.216;2022-11-20T05:34:05;4.40;;;3.08;;
54271;SDS011;40184;53.362;5.216;2022-11-20T05:36:32;3.05;;;2.80;;
54271;SDS011;40184;53.362;5.216;2022-11-20T05:38:58;1.70;;;1.60;;
54271;SDS011;40184;53.362;5.216;2022-11-20T05:41:25;2.22;;;1.70;;
54271;SDS011;40184;53.362;5.216;2022-11-20T05:43:51;2.05;;;1.80;;
54271;SDS011;40184;53.362;5.216;2022-11-20T05:46:18;3.00;;;2.28;;
54271;SDS011;40184;53.362;5.216;2022-11-20T05:48:45;2.03;;;1.92;;
54271;SDS011;40184;53.362;5.216;2022-11-20T05:51:12;3.17;;;1.80;;
54271;SDS011;40184;53.362;5.216;2022-11-20T05:53:40;1.80;;;1.70;;
54271;SDS011;40184;53.362;5.216;2022-11-20T05:56:07;1.50;;;1.38;;
54271;SDS011;40184;53.362;5.216;2022-11-20T05:58:35;1.40;;;1.30;;
54271;SDS011;40184;53.362;5.216;2022-11-20T06:03:47;2.22;;;1.27;;
54271;SDS011;40184;53.362;5.216;2022-11-20T06:06:15;1.67;;;1.17;;
54271;SDS011;40184;53.362;5.216;2022-11-20T06:08:41;1.30;;;1.20;;
54271;SDS011;40184;53.362;5.216;2022-11-20T06:11:08;1.63;;;1.52;;
54271;SDS011;40184;53.362;5.216;2022-11-20T06:13:34;1.50;;;1.30;;
54271;SDS011;40184;53.362;5.216;2022-11-20T06:16:01;1.55;;;1.42;;
54271;SDS011;40184;53.362;5.216;2022-11-20T06:18:27;1.95;;;1.85;;
54271;SDS011;40184;53.362;5.216;2022-11-20T06:21:03;2.30;;;2.20;;
54271;SDS011;40184;53.362;5.216;2022-11-20T06:23:31;3.28;;;2.92;;
54271;SDS011;40184;53.362;5.216;2022-11-20T06:26:00;2.70;;;2.42;;
54271;SDS011;40184;53.362;5.216;2022-11-20T06:28:27;3.88;;;2.75;;
54271;SDS011;40184;53.362;5.216;2022-11-20T06:30:53;3.40;;;3.10;;
54271;SDS011;40184;53.362;5.216;2022-11-20T06:33:19;3.75;;;3.33;;
54271;SDS011;40184;53.362;5.216;2022-11-20T06:35:44;4.72;;;3.65;;
54271;SDS011;40184;53.362;5.216;2022-11-20T06:38:10;3.95;;;2.90;;
54271;SDS011;40184;53.362;5.216;2022-11-20T06:40:35;2.92;;;2.38;;
54271;SDS011;40184;53.362;5.216;2022-11-20T06:43:04;2.20;;;2.10;;
54271;SDS011;40184;53.362;5.216;2022-11-20T06:45:30;2.78;;;2.58;;
54271;SDS011;40184;53.362;5.216;2022-11-20T06:47:56;2.65;;;2.45;;
54271;SDS011;40184;53.362;5.216;2022-11-20T06:50:23;2.65;;;2.45;;
54271;SDS011;40184;53.362;5.216;2022-11-20T06:52:49;1.58;;;1.45;;
54271;SDS011;40184;53.362;5.216;2022-11-20T06:55:14;2.35;;;2.10;;
54271;SDS011;40184;53.362;5.216;2022-11-20T06:57:40;2.05;;;1.85;;
54271;SDS011;40184;53.362;5.216;2022-11-20T07:00:06;2.30;;;2.10;;
54271;SDS011;40184;53.362;5.216;2022-11-20T07:02:32;3.10;;;2.38;;
54271;SDS011;40184;53.362;5.216;2022-11-20T07:04:57;2.20;;;1.92;;
54271;SDS011;40184;53.362;5.216;2022-11-20T07:07:23;2.33;;;2.08;;
54271;SDS011;40184;53.362;5.216;2022-11-20T07:09:49;1.70;;;1.10;;
54271;SDS011;40184;53.362;5.216;2022-11-20T07:12:14;1.15;;;1.05;;
54271;SDS011;40184;53.362;5.216;2022-11-20T07:14:40;2.00;;;1.77;;
54271;SDS011;40184;53.362;5.216;2022-11-20T07:17:05;3.28;;;2.17;;
54271;SDS011;40184;53.362;5.216;2022-11-20T07:19:31;3.67;;;2.55;;
54271;SDS011;40184;53.362;5.216;2022-11-20T07:21:57;3.38;;;2.78;;
54271;SDS011;40184;53.362;5.216;2022-11-20T07:24:22;3.45;;;2.40;;
54271;SDS011;40184;53.362;5.216;2022-11-20T07:26:48;2.58;;;2.33;;
54271;SDS011;40184;53.362;5.216;2022-11-20T07:29:14;1.98;;;1.88;;
54271;SDS011;40184;53.362;5.216;2022-11-20T07:31:40;2.90;;;2.70;;
54271;SDS011;40184;53.362;5.216;2022-11-20T07:34:06;2.97;;;2.22;;
54271;SDS011;40184;53.362;5.216;2022-11-20T07:36:31;2.45;;;2.25;;
54271;SDS011;40184;53.362;5.216;2022-11-20T07:38:57;2.83;;;2.63;;
54271;SDS011;40184;53.362;5.216;2022-11-20T07:41:22;3.10;;;2.33;;
54271;SDS011;40184;53.362;5.216;2022-11-20T07:43:48;2.30;;;2.08;;
54271;SDS011;40184;53.362;5.216;2022-11-20T07:46:14;3.40;;;2.78;;
54271;SDS011;40184;53.362;5.216;2022-11-20T07:48:39;4.53;;;3.28;;
54271;SDS011;40184;53.362;5.216;2022-11-20T07:51:08;3.10;;;2.33;;
54271;SDS011;40184;53.362;5.216;2022-11-20T07:53:33;2.20;;;2.10;;
54271;SDS011;40184;53.362;5.216;2022-11-20T07:55:59;2.40;;;2.20;;
54271;SDS011;40184;53.362;5.216;2022-11-20T07:58:26;4.32;;;2.80;;
54271;SDS011;40184;53.362;5.216;2022-11-20T08:00:54;2.65;;;2.45;;
54271;SDS011;40184;53.362;5.216;2022-11-20T08:03:20;3.13;;;2.50;;
54271;SDS011;40184;53.362;5.216;2022-11-20T08:05:46;4.78;;;2.63;;
54271;SDS011;40184;53.362;5.216;2022-11-20T08:08:12;3.92;;;2.58;;
54271;SDS011;40184;53.362;5.216;2022-11-20T08:10:37;2.22;;;2.03;;
54271;SDS011;40184;53.362;5.216;2022-11-20T08:13:03;5.85;;;3.42;;
54271;SDS011;40184;53.362;5.216;2022-11-20T08:15:48;2.90;;;2.40;;
54271;SDS011;40184;53.362;5.216;2022-11-20T08:18:15;4.25;;;2.58;;
54271;SDS011;40184;53.362;5.216;2022-11-20T08:20:42;5.15;;;3.80;;
54271;SDS011;40184;53.362;5.216;2022-11-20T08:23:08;4.53;;;3.00;;
54271;SDS011;40184;53.362;5.216;2022-11-20T08:25:35;4.47;;;3.47;;
54271;SDS011;40184;53.362;5.216;2022-11-20T08:28:03;5.88;;;4.60;;
54271;SDS011;40184;53.362;5.216;2022-11-20T08:30:31;4.57;;;4.13;;
54271;SDS011;40184;53.362;5.216;2022-11-20T08:33:01;4.30;;;3.47;;
54271;SDS011;40184;53.362;5.216;2022-11-20T08:35:35;4.80;;;4.40;;
54271;SDS011;40184;53.362;5.216;2022-11-20T08:38:02;7.20;;;3.72;;
54271;SDS011;40184;53.362;5.216;2022-11-20T08:40:28;4.50;;;3.95;;
54271;SDS011;40184;53.362;5.216;2022-11-20T08:42:53;3.95;;;3.60;;
54271;SDS011;40184;53.362;5.216;2022-11-20T08:45:19;3.97;;;3.60;;
54271;SDS011;40184;53.362;5.216;2022-11-20T08:47:45;5.75;;;4.20;;
54271;SDS011;40184;53.362;5.216;2022-11-20T08:50:11;3.95;;;3.60;;
54271;SDS011;40184;53.362;5.216;2022-11-20T08:52:39;5.25;;;3.92;;
54271;SDS011;40184;53.362;5.216;2022-11-20T08:55:05;5.93;;;4.43;;
54271;SDS011;40184;53.362;5.216;2022-11-20T08:57:34;3.88;;;3.47;;
54271;SDS011;40184;53.362;5.216;2022-11-20T09:00:01;7.18;;;3.60;;
54271;SDS011;40184;53.362;5.216;2022-11-20T09:02:29;6.88;;;4.32;;
54271;SDS011;40184;53.362;5.216;2022-11-20T09:04:54;6.00;;;4.38;;
54271;SDS011;40184;53.362;5.216;2022-11-20T09:07:20;6.15;;;4.75;;
54271;SDS011;40184;53.362;5.216;2022-11-20T09:09:46;6.57;;;5.97;;
54271;SDS011;40184;53.362;5.216;2022-11-20T09:12:11;8.57;;;5.38;;
54271;SDS011;40184;53.362;5.216;2022-11-20T09:14:37;6.22;;;4.75;;
54271;SDS011;40184;53.362;5.216;2022-11-20T09:17:03;5.28;;;4.78;;
54271;SDS011;40184;53.362;5.216;2022-11-20T09:19:28;6.30;;;5.15;;
54271;SDS011;40184;53.362;5.216;2022-11-20T09:21:54;5.63;;;4.95;;
54271;SDS011;40184;53.362;5.216;2022-11-20T09:24:19;5.80;;;4.78;;
54271;SDS011;40184;53.362;5.216;2022-11-20T09:26:46;6.15;;;5.25;;
54271;SDS011;40184;53.362;5.216;2022-11-20T09:29:11;5.88;;;4.88;;
54271;SDS011;40184;53.362;5.216;2022-11-20T09:31:37;7.03;;;5.15;;
54271;SDS011;40184;53.362;5.216;2022-11-20T09:34:02;5.63;;;5.05;;
54271;SDS011;40184;53.362;5.216;2022-11-20T09:36:28;12.55;;;5.18;;
54271;SDS011;40184;53.362;5.216;2022-11-20T09:38:54;5.65;;;5.15;;
54271;SDS011;40184;53.362;5.216;2022-11-20T09:46:36;6.10;;;5.50;;
54271;SDS011;40184;53.362;5.216;2022-11-20T09:51:57;8.15;;;6.28;;
54271;SDS011;40184;53.362;5.216;2022-11-20T09:54:41;8.10;;;6.07;;
54271;SDS011;40184;53.362;5.216;2022-11-20T09:57:11;8.85;;;6.45;;
54271;SDS011;40184;53.362;5.216;2022-11-20T09:59:42;10.27;;;6.45;;
54271;SDS011;40184;53.362;5.216;2022-11-20T10:10:16;7.80;;;6.20;;
54271;SDS011;40184;53.362;5.216;2022-11-20T10:13:02;8.45;;;7.05;;
54271;SDS011;40184;53.362;5.216;2022-11-20T10:21:41;9.00;;;7.05;;
54271;SDS011;40184;53.362;5.216;2022-11-20T10:30:14;8.18;;;6.43;;
54271;SDS011;40184;53.362;5.216;2022-11-20T10:32:54;10.05;;;7.53;;
54271;SDS011;40184;53.362;5.216;2022-11-20T10:38:24;6.90;;;5.85;;
54271;SDS011;40184;53.362;5.216;2022-11-20T10:40:57;9.20;;;6.15;;
54271;SDS011;40184;53.362;5.216;2022-11-20T10:43:45;18.02;;;12.20;;
54271;SDS011;40184;53.362;5.216;2022-11-20T10:46:15;11.90;;;10.70;;
54271;SDS011;40184;53.362;5.216;2022-11-20T10:48:45;8.43;;;7.07;;
54271;SDS011;40184;53.362;5.216;2022-11-20T10:53:57;18.30;;;14.13;;
54271;SDS011;40184;53.362;5.216;2022-11-20T11:02:01;8.30;;;7.18;;
54271;SDS011;40184;53.362;5.216;2022-11-20T11:04:33;8.38;;;6.25;;
54271;SDS011;40184;53.362;5.216;2022-11-20T11:07:13;10.68;;;5.72;;
54271;SDS011;40184;53.362;5.216;2022-11-20T11:09:50;4.05;;;3.72;;
54271;SDS011;40184;53.362;5.216;2022-11-20T11:12:20;4.68;;;4.18;;
54271;SDS011;40184;53.362;5.216;2022-11-20T11:14:49;4.35;;;3.95;;
54271;SDS011;40184;53.362;5.216;2022-11-20T11:17:29;5.30;;;4.03;;
54271;SDS011;40184;53.362;5.216;2022-11-20T11:19:57;4.90;;;3.67;;
54271;SDS011;40184;53.362;5.216;2022-11-20T11:22:27;4.50;;;3.95;;
54271;SDS011;40184;53.362;5.216;2022-11-20T11:24:55;3.28;;;2.97;;
54271;SDS011;40184;53.362;5.216;2022-11-20T11:27:20;3.83;;;3.35;;
54271;SDS011;40184;53.362;5.216;2022-11-20T11:29:46;4.80;;;2.88;;
54271;SDS011;40184;53.362;5.216;2022-11-20T11:32:17;2.90;;;2.60;;
54271;SDS011;40184;53.362;5.216;2022-11-20T11:34:57;3.80;;;3.00;;
54271;SDS011;40184;53.362;5.216;2022-11-20T11:37:28;3.50;;;3.20;;
54271;SDS011;40184;53.362;5.216;2022-11-20T11:40:05;4.80;;;3.67;;
54271;SDS011;40184;53.362;5.216;2022-11-20T11:42:39;7.28;;;3.63;;
54271;SDS011;40184;53.362;5.216;2022-11-20T11:45:15;4.03;;;3.28;;
54271;SDS011;40184;53.362;5.216;2022-11-20T11:52:34;3.00;;;2.70;;
54271;SDS011;40184;53.362;5.216;2022-11-20T11:55:14;5.45;;;4.07;;
54271;SDS011;40184;53.362;5.216;2022-11-20T11:57:49;5.70;;;5.03;;
54271;SDS011;40184;53.362;5.216;2022-11-20T12:00:21;9.00;;;5.32;;
54271;SDS011;40184;53.362;5.216;2022-11-20T12:03:00;6.40;;;5.18;;
54271;SDS011;40184;53.362;5.216;2022-11-20T12:05:44;5.57;;;4.90;;
54271;SDS011;40184;53.362;5.216;2022-11-20T12:13:35;7.28;;;6.57;;
54271;SDS011;40184;53.362;5.216;2022-11-20T12:16:11;10.15;;;9.15;;
54271;SDS011;40184;53.362;5.216;2022-11-20T12:18:39;8.30;;;6.20;;
54271;SDS011;40184;53.362;5.216;2022-11-20T12:21:10;9.55;;;7.63;;
54271;SDS011;40184;53.362;5.216;2022-11-20T12:43:39;6.95;;;5.55;;
54271;SDS011;40184;53.362;5.216;2022-11-20T12:59:10;7.18;;;6.32;;
54271;SDS011;40184;53.362;5.216;2022-11-20T13:01:50;7.95;;;6.90;;
54271;SDS011;40184;53.362;5.216;2022-11-20T13:07:01;15.55;;;10.50;;
54271;SDS011;40184;53.362;5.216;2022-11-20T13:09:29;19.60;;;11.90;;
54271;SDS011;40184;53.362;5.216;2022-11-20T13:20:12;11.45;;;8.82;;
54271;SDS011;40184;53.362;5.216;2022-11-20T13:27:58;24.55;;;15.48;;
54271;SDS011;40184;53.362;5.216;2022-11-20T13:30:26;14.40;;;11.35;;
54271;SDS011;40184;53.362;5.216;2022-11-20T13:35:26;34.45;;;19.88;;
54271;SDS011;40184;53.362;5.216;2022-11-20T13:38:12;45.63;;;24.70;;
54271;SDS011;40184;53.362;5.216;2022-11-20T13:40:52;10.48;;;8.57;;
54271;SDS011;40184;53.362;5.216;2022-11-20T13:46:02;10.70;;;8.73;;
54271;SDS011;40184;53.362;5.216;2022-11-20T13:48:34;9.65;;;7.78;;
54271;SDS011;40184;53.362;5.216;2022-11-20T13:53:37;10.73;;;9.73;;
54271;SDS011;40184;53.362;5.216;2022-11-20T14:01:57;13.70;;;11.73;;
54271;SDS011;40184;53.362;5.216;2022-11-20T14:04:34;23.05;;;15.70;;
54271;SDS011;40184;53.362;5.216;2022-11-20T14:07:07;16.40;;;10.98;;
54271;SDS011;40184;53.362;5.216;2022-11-20T14:09:34;17.17;;;13.20;;
54271;SDS011;40184;53.362;5.216;2022-11-20T14:12:01;16.02;;;11.77;;
54271;SDS011;40184;53.362;5.216;2022-11-20T14:14:29;16.13;;;11.90;;
54271;SDS011;40184;53.362;5.216;2022-11-20T14:17:08;41.03;;;25.33;;
54271;SDS011;40184;53.362;5.216;2022-11-20T14:19:43;23.55;;;13.95;;
54271;SDS011;40184;53.362;5.216;2022-11-20T14:24:47;31.65;;;17.05;;
54271;SDS011;40184;53.362;5.216;2022-11-20T14:27:18;56.05;;;25.80;;
54271;SDS011;40184;53.362;5.216;2022-11-20T14:29:45;48.88;;;20.02;;
54271;SDS011;40184;53.362;5.216;2022-11-20T14:32:17;40.88;;;17.98;;
54271;SDS011;40184;53.362;5.216;2022-11-20T14:34:44;10.65;;;7.15;;
54271;SDS011;40184;53.362;5.216;2022-11-20T14:37:13;60.08;;;27.27;;
54271;SDS011;40184;53.362;5.216;2022-11-20T14:39:48;21.77;;;12.30;;
54271;SDS011;40184;53.362;5.216;2022-11-20T14:42:21;30.60;;;18.23;;
54271;SDS011;40184;53.362;5.216;2022-11-20T14:44:49;18.48;;;12.23;;
54271;SDS011;40184;53.362;5.216;2022-11-20T14:47:26;21.08;;;14.57;;
54271;SDS011;40184;53.362;5.216;2022-11-20T14:49:54;17.20;;;11.95;;
54271;SDS011;40184;53.362;5.216;2022-11-20T14:52:25;15.20;;;11.95;;
54271;SDS011;40184;53.362;5.216;2022-11-20T14:54:53;11.98;;;8.27;;
54271;SDS011;40184;53.362;5.216;2022-11-20T14:57:24;29.52;;;18.48;;
54271;SDS011;40184;53.362;5.216;2022-11-20T15:02:32;13.10;;;9.30;;
54271;SDS011;40184;53.362;5.216;2022-11-20T15:04:59;46.45;;;21.00;;
54271;SDS011;40184;53.362;5.216;2022-11-20T15:07:30;20.45;;;11.38;;
54271;SDS011;40184;53.362;5.216;2022-11-20T15:10:04;32.35;;;16.70;;
54271;SDS011;40184;53.362;5.216;2022-11-20T15:12:31;18.27;;;14.70;;
54271;SDS011;40184;53.362;5.216;2022-11-20T15:14:58;7.78;;;7.00;;
54271;SDS011;40184;53.362;5.216;2022-11-20T15:17:24;6.75;;;5.72;;
54271;SDS011;40184;53.362;5.216;2022-11-20T15:19:49;9.60;;;7.00;;
54271;SDS011;40184;53.362;5.216;2022-11-20T15:22:16;8.85;;;7.43;;
54271;SDS011;40184;53.362;5.216;2022-11-20T15:24:42;7.13;;;6.43;;
54271;SDS011;40184;53.362;5.216;2022-11-20T15:27:08;8.23;;;7.07;;
54271;SDS011;40184;53.362;5.216;2022-11-20T15:29:34;8.82;;;6.53;;
54271;SDS011;40184;53.362;5.216;2022-11-20T15:32:00;8.02;;;6.65;;
54271;SDS011;40184;53.362;5.216;2022-11-20T15:34:27;9.68;;;6.97;;
54271;SDS011;40184;53.362;5.216;2022-11-20T15:36:52;6.80;;;6.20;;
54271;SDS011;40184;53.362;5.216;2022-11-20T15:39:19;7.68;;;6.80;;
54271;SDS011;40184;53.362;5.216;2022-11-20T15:41:45;9.77;;;6.97;;
54271;SDS011;40184;53.362;5.216;2022-11-20T15:44:11;8.02;;;6.78;;
54271;SDS011;40184;53.362;5.216;2022-11-20T15:46:38;8.48;;;7.55;;
54271;SDS011;40184;53.362;5.216;2022-11-20T15:49:16;9.25;;;8.35;;
54271;SDS011;40184;53.362;5.216;2022-11-20T15:51:44;11.07;;;8.23;;
54271;SDS011;40184;53.362;5.216;2022-11-20T15:54:13;11.40;;;8.25;;
54271;SDS011;40184;53.362;5.216;2022-11-20T15:56:45;10.30;;;8.45;;
54271;SDS011;40184;53.362;5.216;2022-11-20T15:59:11;13.27;;;9.50;;
54271;SDS011;40184;53.362;5.216;2022-11-20T16:01:39;12.63;;;9.45;;
54271;SDS011;40184;53.362;5.216;2022-11-20T16:04:09;15.07;;;11.75;;
54271;SDS011;40184;53.362;5.216;2022-11-20T16:06:36;12.68;;;10.07;;
54271;SDS011;40184;53.362;5.216;2022-11-20T16:09:01;13.02;;;10.30;;
54271;SDS011;40184;53.362;5.216;2022-11-20T16:11:27;20.52;;;12.27;;
54271;SDS011;40184;53.362;5.216;2022-11-20T16:13:52;15.90;;;12.00;;
54271;SDS011;40184;53.362;5.216;2022-11-20T16:16:37;103.93;;;39.17;;
54271;SDS011;40184;53.362;5.216;2022-11-20T16:19:14;141.52;;;45.38;;
54271;SDS011;40184;53.362;5.216;2022-11-20T16:21:40;134.05;;;46.50;;
54271;SDS011;40184;53.362;5.216;2022-11-20T16:24:07;167.82;;;52.13;;
54271;SDS011;40184;53.362;5.216;2022-11-20T16:26:35;19.73;;;14.23;;
54271;SDS011;40184;53.362;5.216;2022-11-20T16:29:02;14.48;;;9.50;;
54271;SDS011;40184;53.362;5.216;2022-11-20T16:31:29;11.27;;;9.65;;
54271;SDS011;40184;53.362;5.216;2022-11-20T16:33:55;9.50;;;8.50;;
54271;SDS011;40184;53.362;5.216;2022-11-20T16:36:23;10.43;;;8.70;;
54271;SDS011;40184;53.362;5.216;2022-11-20T16:38:59;10.77;;;9.35;;
54271;SDS011;40184;53.362;5.216;2022-11-20T16:41:27;11.25;;;10.07;;
54271;SDS011;40184;53.362;5.216;2022-11-20T16:43:57;13.75;;;9.85;;
54271;SDS011;40184;53.362;5.216;2022-11-20T16:46:25;23.73;;;14.15;;
54271;SDS011;40184;53.362;5.216;2022-11-20T16:48:53;15.13;;;11.73;;
54271;SDS011;40184;53.362;5.216;2022-11-20T16:51:23;18.92;;;14.85;;
54271;SDS011;40184;53.362;5.216;2022-11-20T16:53:50;46.22;;;24.60;;
54271;SDS011;40184;53.362;5.216;2022-11-20T16:56:17;29.70;;;17.50;;